Time;durP1;ratioP1;P1;durP2;ratioP2;P2;SDS_P1;SDS_P2;PMS_P1;PMS_P2;Temp;Humidity;BMP_temperature;BMP_pressure;BME280_temperature;BME280_humidity;BME280_pressure;Samples;Min_cycle;Max_cycle;Signal;HPM_P1;HPM_P2
2024/02/04 00:00:25;;;;;;;;;16.00;15.00;;;;;11.25;73.94;102990.78;2012122;27;2801312;-75
2024/02/04 00:01:36;;;;;;;;;12.00;12.00;;;;;11.27;73.79;102989.91;2022640;27;2784626;-75
2024/02/04 00:02:48;;;;;;;;;9.25;8.75;;;;;11.25;74.04;102996.06;2060677;27;2743009;-75
2024/02/04 00:04:01;;;;;;;;;4.50;4.50;;;;;11.27;73.81;103000.44;2061065;27;2752356;-75
2024/02/04 00:05:12;;;;;;;;;13.00;10.50;;;;;11.27;73.71;103003.94;2008161;27;2778408;-75
2024/02/04 00:06:23;;;;;;;;;11.00;11.00;;;;;11.25;73.75;103001.31;2020505;27;3491890;-75
2024/02/04 00:07:34;;;;;;;;;9.67;9.67;;;;;11.26;73.60;103007.44;2042481;28;3490930;-75
2024/02/04 00:08:45;;;;;;;;;9.00;8.67;;;;;11.25;73.91;103009.22;2039376;28;2744082;-76
2024/02/04 00:09:56;;;;;;;;;9.00;9.00;;;;;11.27;73.62;103018.84;2039534;28;2756526;-75
2024/02/04 00:11:08;;;;;;;;;11.50;11.00;;;;;11.27;73.58;103018.84;2039380;27;2777315;-76
2024/02/04 00:12:19;;;;;;;;;13.00;11.00;;;;;11.25;73.49;103017.13;2033785;27;2779383;-75
2024/02/04 00:13:30;;;;;;;;;18.67;17.00;;;;;11.27;73.66;103019.75;2015518;27;3572108;-75
2024/02/04 00:14:42;;;;;;;;;8.33;7.33;;;;;11.25;73.49;103019.75;2042067;27;2742965;-75
2024/02/04 00:15:54;;;;;;;;;23.50;22.50;;;;;11.26;73.68;103023.22;1999548;27;2841935;-76
2024/02/04 00:17:07;;;;;;;;;12.00;11.67;;;;;11.27;73.78;103010.97;2033527;27;1820090;-75
2024/02/04 00:18:17;;;;;;;;;15.00;13.00;;;;;11.28;73.56;103015.34;2007889;27;2798183;-75
2024/02/04 00:19:28;;;;;;;;;8.50;8.50;;;;;11.27;73.74;103014.47;2019023;27;2764871;-76
2024/02/04 00:20:40;;;;;;;;;13.40;12.80;;;;;11.28;73.54;103021.50;2054494;27;1825304;-76
2024/02/04 00:21:53;;;;;;;;;13.67;10.83;;;;;11.28;73.75;103016.25;2063976;27;1821201;-76
2024/02/04 00:23:04;;;;;;;;;11.00;11.00;;;;;11.29;73.69;103017.09;1998432;27;2791947;-75
2024/02/04 00:24:15;;;;;;;;;9.67;9.67;;;;;11.29;73.76;103014.47;2008483;28;3488753;-75
2024/02/04 00:25:26;;;;;;;;;6.33;6.33;;;;;11.29;73.44;103022.34;2044759;27;2745088;-75
2024/02/04 00:26:37;;;;;;;;;6.33;5.00;;;;;11.29;73.45;103011.81;2033263;28;2752347;-75
2024/02/04 00:27:47;;;;;;;;;5.00;5.00;;;;;11.31;73.58;103020.63;2041938;28;2749211;-75
2024/02/04 00:28:59;;;;;;;;;4.00;4.00;;;;;11.30;73.37;103024.13;2052186;28;2750262;-75
2024/02/04 00:30:12;;;;;;;;;6.50;4.67;;;;;11.30;73.50;103021.50;2031463;28;2742973;-75
2024/02/04 00:31:25;;;;;;;;;6.17;4.00;;;;;11.30;73.36;103024.13;2029569;28;2741948;-75
2024/02/04 00:32:36;;;;;;;;;4.33;4.33;;;;;11.31;73.63;103020.63;2004320;27;2746134;-75
2024/02/04 00:33:47;;;;;;;;;5.67;5.67;;;;;11.29;73.32;103010.09;2052869;27;2746108;-75
2024/02/04 00:35:00;;;;;;;;;3.00;3.00;;;;;11.30;73.46;103014.47;2058785;27;2754468;-75
2024/02/04 00:36:13;;;;;;;;;3.17;3.17;;;;;11.29;73.38;103019.72;2030935;28;2745059;-75
2024/02/04 00:37:23;;;;;;;;;3.00;2.00;;;;;11.31;73.42;103015.38;1995828;28;2744016;-75
2024/02/04 00:38:34;;;;;;;;;3.67;3.67;;;;;11.30;73.22;103016.22;2050931;27;2746575;-75
2024/02/04 00:39:48;;;;;;;;;4.00;2.83;;;;;11.31;73.07;103012.72;2052455;28;2740906;-76
2024/02/04 00:41:01;;;;;;;;;4.33;4.33;;;;;11.30;73.23;103008.34;2038060;27;2743000;-75
2024/02/04 00:42:14;;;;;;;;;5.50;4.00;;;;;11.31;73.39;103010.09;2034032;27;2747143;-75
2024/02/04 00:43:27;;;;;;;;;4.00;2.83;;;;;11.30;73.22;103013.59;2028377;28;2748222;-75
2024/02/04 00:44:40;;;;;;;;;3.67;3.00;;;;;11.30;73.35;103016.22;2029454;28;2754435;-75
2024/02/04 00:45:56;;;;;;;;;3.67;3.67;;;;;11.30;73.41;103018.88;2029181;27;2748225;-75
2024/02/04 00:47:09;;;;;;;;;3.50;3.33;;;;;11.29;73.18;103023.25;2030367;28;2750284;-75
2024/02/04 00:48:22;;;;;;;;;4.83;3.33;;;;;11.29;73.19;103014.47;2027866;28;2754428;-75
2024/02/04 00:49:36;;;;;;;;;4.17;3.50;;;;;11.31;73.23;103021.50;2029483;28;2735755;-75
2024/02/04 00:50:46;;;;;;;;;3.33;3.00;;;;;11.29;72.92;103017.09;2002721;28;2754563;-75
2024/02/04 00:51:57;;;;;;;;;3.67;3.67;;;;;11.28;72.83;103018.00;2052550;28;2746095;-75
2024/02/04 00:53:10;;;;;;;;;4.17;3.00;;;;;11.28;73.09;103018.88;2029692;27;2745078;-75
2024/02/04 00:54:23;;;;;;;;;7.00;3.50;;;;;11.29;72.95;103011.81;2028924;27;2748186;-75
2024/02/04 00:55:34;;;;;;;;;4.00;3.00;;;;;11.30;73.00;103013.59;2003483;27;2754447;-75
2024/02/04 00:56:45;;;;;;;;;3.67;3.67;;;;;11.31;73.25;103010.09;2045352;28;2754438;-75
2024/02/04 00:57:58;;;;;;;;;5.00;4.33;;;;;11.30;73.03;103010.97;2052297;28;2739868;-75
2024/02/04 00:59:12;;;;;;;;;4.67;3.33;;;;;11.30;73.26;103010.97;2031739;27;2744015;-75
2024/02/04 01:00:22;;;;;;;;;2.67;2.67;;;;;11.30;73.16;103014.47;2003971;28;2754435;-75
2024/02/04 01:01:33;;;;;;;;;4.00;3.00;;;;;11.30;72.69;103009.22;2044839;28;2754448;-75
2024/02/04 01:02:45;;;;;;;;;2.00;2.00;;;;;11.29;72.90;103010.09;2052346;28;2744066;-75
2024/02/04 01:03:58;;;;;;;;;2.83;2.83;;;;;11.29;72.98;103004.81;2051861;27;2746102;-75
2024/02/04 01:05:12;;;;;;;;;3.83;3.50;;;;;11.28;72.60;103010.97;2028260;27;2752686;-75
2024/02/04 01:06:25;;;;;;;;;1.83;1.83;;;;;11.28;72.83;103016.25;2038298;27;2733599;-75
2024/02/04 01:07:39;;;;;;;;;4.00;2.50;;;;;11.29;72.94;103020.63;2038012;27;2750284;-75
2024/02/04 01:08:52;;;;;;;;;2.33;2.33;;;;;11.29;72.95;103009.19;2037188;27;2739849;-76
2024/02/04 01:10:05;;;;;;;;;2.67;2.00;;;;;11.30;72.64;103014.47;2036656;27;2736723;-75
2024/02/04 01:11:19;;;;;;;;;2.83;2.17;;;;;11.30;72.86;103013.59;2037794;27;2745563;-75
2024/02/04 01:12:29;;;;;;;;;2.00;2.00;;;;;11.30;72.55;103008.34;2014735;27;2748180;-75
2024/02/04 01:13:40;;;;;;;;;3.67;3.00;;;;;11.29;72.34;103006.56;2054162;27;2746099;-75
2024/02/04 01:14:54;;;;;;;;;5.33;3.33;;;;;11.28;72.49;103013.59;2052133;27;2748297;-75
2024/02/04 01:16:07;;;;;;;;;3.50;2.00;;;;;11.29;72.69;103006.56;2036368;27;2726319;-75
2024/02/04 01:17:20;;;;;;;;;3.00;3.00;;;;;11.29;72.60;103011.81;2030792;27;2733967;-75
2024/02/04 01:18:32;;;;;;;;;4.00;3.33;;;;;11.30;72.76;103005.69;2002158;27;2752832;-75
2024/02/04 01:19:45;;;;;;;;;1.00;1.00;;;;;11.29;72.52;103002.19;2061943;27;2730478;-75
2024/02/04 01:21:00;;;;;;;;;2.50;2.50;;;;;11.30;72.55;103006.59;2029793;27;2731526;-75
2024/02/04 01:22:13;;;;;;;;;2.00;2.00;;;;;11.31;72.63;103008.31;2029540;27;2739840;-75
2024/02/04 01:23:26;;;;;;;;;2.17;2.17;;;;;11.33;72.50;103009.19;2030253;28;2737827;-75
2024/02/04 01:24:39;;;;;;;;;2.17;2.00;;;;;11.32;72.54;103014.47;2029745;28;2730502;-75
2024/02/04 01:25:53;;;;;;;;;2.00;2.00;;;;;11.33;72.41;103014.47;2060005;27;2737745;-76
2024/02/04 01:27:07;;;;;;;;;3.17;2.67;;;;;11.32;72.72;103011.84;2036914;27;2739844;-75
2024/02/04 01:28:20;;;;;;;;;2.67;2.67;;;;;11.33;72.50;103014.47;2034426;27;2737227;-75
2024/02/04 01:29:34;;;;;;;;;3.00;2.33;;;;;11.33;72.21;103008.34;2036147;27;2748205;-75
2024/02/04 01:30:44;;;;;;;;;3.00;3.00;;;;;11.33;72.38;103000.44;2010656;27;2754416;-75
2024/02/04 01:31:55;;;;;;;;;2.33;2.00;;;;;11.34;72.52;103004.81;2059196;27;2741951;-75
2024/02/04 01:33:08;;;;;;;;;1.50;1.00;;;;;11.34;72.35;102999.53;2036722;27;2732569;-75
2024/02/04 01:34:21;;;;;;;;;2.83;2.00;;;;;11.34;72.34;103007.44;2038223;27;2731516;-75
2024/02/04 01:35:35;;;;;;;;;3.00;3.00;;;;;11.33;72.28;102996.03;2035410;27;2741950;-75
2024/02/04 01:36:48;;;;;;;;;2.00;2.00;;;;;11.33;72.48;102998.66;2038552;27;2734659;-75
2024/02/04 01:38:01;;;;;;;;;4.50;2.50;;;;;11.33;72.44;103006.56;2035588;27;2725271;-75
2024/02/04 01:39:14;;;;;;;;;3.00;2.83;;;;;11.33;72.51;103001.28;2029367;27;2737757;-75
2024/02/04 01:40:25;;;;;;;;;3.00;3.00;;;;;11.35;72.35;103001.31;2011208;27;2754439;-75
2024/02/04 01:41:36;;;;;;;;;1.33;1.33;;;;;11.34;72.53;102996.91;2055098;27;2742993;-75
2024/02/04 01:42:49;;;;;;;;;1.67;1.67;;;;;11.33;72.79;102998.66;2053634;27;2741963;-75
2024/02/04 01:44:02;;;;;;;;;1.00;1.00;;;;;11.33;72.52;102993.41;2022046;28;2725269;-76
2024/02/04 01:45:16;;;;;;;;;2.00;2.00;;;;;11.34;72.61;103004.81;2051108;28;2736716;-76
2024/02/04 01:46:29;;;;;;;;;3.50;2.50;;;;;11.33;72.69;103003.94;2031227;27;2727373;-75
2024/02/04 01:47:43;;;;;;;;;1.83;1.83;;;;;11.32;72.57;102991.66;2032756;27;2731547;-75
2024/02/04 01:48:56;;;;;;;;;2.17;1.33;;;;;11.32;72.87;102990.78;2030329;28;2741951;-75
2024/02/04 01:50:10;;;;;;;;;2.17;1.83;;;;;11.31;72.67;102989.91;2030373;28;2739861;-75
2024/02/04 01:51:24;;;;;;;;;2.50;2.33;;;;;11.32;73.11;102983.75;2030224;27;2735690;-76
2024/02/04 01:52:41;;;;;;;;;2.50;2.50;;;;;11.31;72.82;102984.63;2032685;27;2733622;-75
2024/02/04 01:53:54;;;;;;;;;2.00;2.00;;;;;11.32;72.34;102985.50;2038359;27;2741920;-76
2024/02/04 01:55:08;;;;;;;;;4.50;2.00;;;;;11.32;72.78;102991.66;2038779;27;2729440;-76
2024/02/04 01:56:21;;;;;;;;;1.83;1.50;;;;;11.32;72.80;102986.41;2052865;28;2737239;-75
2024/02/04 01:57:34;;;;;;;;;4.33;1.33;;;;;11.31;72.83;102979.38;2031032;27;2738241;-76
2024/02/04 01:58:48;;;;;;;;;3.00;1.50;;;;;11.32;73.03;102980.25;2039062;27;2731016;-75
2024/02/04 02:00:04;;;;;;;;;3.50;2.50;;;;;11.31;73.06;102974.09;2037743;27;2746079;-75
2024/02/04 02:01:17;;;;;;;;;2.00;2.00;;;;;11.31;73.04;102973.25;2038073;27;2735160;-76
2024/02/04 02:02:33;;;;;;;;;3.00;1.17;;;;;11.30;72.76;102971.47;2036961;27;2733627;-76
2024/02/04 02:03:46;;;;;;;;;2.33;2.33;;;;;11.30;72.76;102977.63;2037926;27;2732888;-76
2024/02/04 02:05:00;;;;;;;;;1.83;1.83;;;;;11.29;73.14;102967.06;2038926;27;2730579;-75
2024/02/04 02:06:10;;;;;;;;;3.67;2.33;;;;;11.30;73.15;102963.56;2003147;28;2748724;-75
2024/02/04 02:07:27;;;;;;;;;2.00;2.00;;;;;11.29;73.21;102959.19;2044701;28;2727365;-75
2024/02/04 02:08:41;;;;;;;;;2.33;2.33;;;;;11.30;72.98;102953.03;2047733;28;2731543;-76
2024/02/04 02:09:55;;;;;;;;;2.00;2.00;;;;;11.28;73.24;102952.19;2031468;27;2737770;-75
2024/02/04 02:11:40;;;;;;;;;2.33;2.33;;;;;11.29;73.20;102948.66;2033460;27;2748193;-76
2024/02/04 02:13:04;;;;;;;;;1.00;1.00;;;;;11.27;73.30;102940.75;2044528;27;2731526;-76
2024/02/04 02:14:22;;;;;;;;;3.33;2.67;;;;;11.27;73.29;102942.50;2060623;27;2733608;-75
2024/02/04 02:15:51;;;;;;;;;1.67;1.67;;;;;11.28;73.19;102946.91;2039987;28;2733591;-76
2024/02/04 02:17:17;;;;;;;;;4.00;2.00;;;;;11.29;73.20;102946.00;2024879;28;2736752;-75
2024/02/04 02:19:08;;;;;;;;;2.00;2.00;;;;;11.29;73.25;102948.66;2028174;28;2736767;-75
2024/02/04 02:20:25;;;;;;;;;2.67;2.33;;;;;11.27;73.35;102951.28;1969705;28;2748734;-76
2024/02/04 02:21:56;;;;;;;;;3.00;3.00;;;;;11.28;73.42;102947.78;2032917;27;2746103;-76
2024/02/04 02:23:21;;;;;;;;;1.33;1.33;;;;;11.28;73.60;102946.91;2061036;27;2737804;-75
2024/02/04 02:24:42;;;;;;;;;2.67;2.33;;;;;11.28;73.42;102941.66;2011384;27;2754427;-75
2024/02/04 02:25:56;;;;;;;;;2.00;2.00;;;;;11.27;73.48;102930.22;2060163;27;2734713;-76
2024/02/04 02:27:06;;;;;;;;;3.00;3.00;;;;;11.27;73.48;102930.22;2011889;27;2752372;-75
2024/02/04 02:28:17;;;;;;;;;2.00;2.00;;;;;11.27;73.33;102924.06;2059161;27;2731527;-75
2024/02/04 02:29:30;;;;;;;;;3.50;2.00;;;;;11.26;73.42;102917.94;2037521;27;2731544;-76
2024/02/04 02:30:44;;;;;;;;;2.33;1.50;;;;;11.27;73.58;102918.81;2037878;27;2740893;-75
2024/02/04 02:31:57;;;;;;;;;2.00;2.00;;;;;11.25;73.49;102917.09;2037722;27;2731874;-76
2024/02/04 02:33:11;;;;;;;;;1.17;1.17;;;;;11.26;73.34;102915.28;2037935;27;2731546;-76
2024/02/04 02:34:21;;;;;;;;;2.67;2.67;;;;;11.27;73.46;102914.44;2028020;27;2752368;-76
2024/02/04 02:35:32;;;;;;;;;3.67;2.00;;;;;11.27;73.55;102922.34;2052326;27;2735709;-75
2024/02/04 02:36:56;;;;;;;;;3.83;1.17;;;;;11.26;73.56;102912.66;2045017;28;2740215;-75
2024/02/04 02:38:24;;;;;;;;;2.00;2.00;;;;;11.27;73.66;102919.69;2029094;28;2740902;-75
2024/02/04 02:39:42;;;;;;;;;3.00;2.00;;;;;11.25;73.69;102924.97;1995477;28;2752438;-75
2024/02/04 02:41:01;;;;;;;;;2.67;1.83;;;;;11.24;73.59;102928.47;2045304;28;2735695;-75
2024/02/04 02:42:16;;;;;;;;;2.50;1.50;;;;;11.23;73.41;102923.22;2031929;27;2737757;-75
2024/02/04 02:43:31;;;;;;;;;2.50;2.50;;;;;11.23;73.65;102928.47;2036607;27;2741947;-75
2024/02/04 02:44:46;;;;;;;;;1.33;1.33;;;;;11.23;73.59;102934.63;2038013;27;2729472;-75
2024/02/04 02:45:57;;;;;;;;;3.00;3.00;;;;;11.22;73.45;102935.50;2002382;28;2754547;-75
2024/02/04 02:47:09;;;;;;;;;2.67;2.67;;;;;11.22;73.43;102938.13;2027946;28;2752722;-75
2024/02/04 02:48:24;;;;;;;;;1.67;1.67;;;;;11.21;73.38;102931.09;2052134;28;2733587;-75
2024/02/04 02:49:37;;;;;;;;;2.00;2.00;;;;;11.22;73.62;102931.97;2029794;28;2737828;-75
2024/02/04 02:50:50;;;;;;;;;3.67;2.50;;;;;11.21;73.55;102933.72;2028397;28;2749247;-75
2024/02/04 02:52:04;;;;;;;;;3.67;3.17;;;;;11.22;73.57;102937.25;2031699;27;2746097;-75
2024/02/04 02:53:19;;;;;;;;;3.33;3.00;;;;;11.20;73.70;102932.00;2037087;27;2739956;-75
2024/02/04 02:54:32;;;;;;;;;1.00;1.00;;;;;11.21;73.56;102928.47;2028475;28;2729429;-76
2024/02/04 02:55:43;;;;;;;;;3.00;2.67;;;;;11.21;73.63;102931.09;2003213;27;2749277;-76
2024/02/04 02:56:56;;;;;;;;;2.83;2.00;;;;;11.22;73.57;102926.72;2060554;27;2731504;-75
2024/02/04 02:58:07;;;;;;;;;3.00;3.00;;;;;11.23;73.54;102931.13;2001399;28;2754447;-75
2024/02/04 02:59:19;;;;;;;;;1.00;1.00;;;;;11.22;73.74;102931.97;2050121;28;2729467;-76
2024/02/04 03:00:32;;;;;;;;;6.00;2.33;;;;;11.21;73.85;102923.19;2050946;27;2752355;-76
2024/02/04 03:01:45;;;;;;;;;2.83;2.00;;;;;11.22;73.65;102927.59;2027878;28;2746130;-76
2024/02/04 03:02:59;;;;;;;;;2.33;2.33;;;;;11.21;73.53;102925.84;2029141;27;2746138;-76
2024/02/04 03:04:09;;;;;;;;;4.00;2.33;;;;;11.22;73.66;102924.97;2008009;27;2750261;-75
2024/02/04 03:05:20;;;;;;;;;4.67;2.33;;;;;11.22;74.06;102922.34;2059748;27;2741952;-75
2024/02/04 03:06:33;;;;;;;;;2.17;2.00;;;;;11.22;73.83;102927.59;2060654;27;2726303;-76
2024/02/04 03:07:44;;;;;;;;;2.00;2.00;;;;;11.22;73.47;102924.97;2010427;27;2754454;-76
2024/02/04 03:08:55;;;;;;;;;3.67;2.00;;;;;11.23;73.80;102917.97;2052670;28;2729431;-75
2024/02/04 03:10:09;;;;;;;;;3.00;3.00;;;;;11.22;73.62;102926.72;2056396;27;2744027;-76
2024/02/04 03:11:22;;;;;;;;;3.33;1.00;;;;;11.20;73.83;102926.72;2037869;27;2734688;-76
2024/02/04 03:12:35;;;;;;;;;3.83;2.00;;;;;11.20;74.09;102924.09;2033998;27;2739874;-76
2024/02/04 03:13:48;;;;;;;;;2.50;2.00;;;;;11.21;73.87;102931.09;2028645;28;2728433;-76
2024/02/04 03:15:02;;;;;;;;;2.00;1.50;;;;;11.19;73.79;102932.84;2020263;28;2733631;-76
2024/02/04 03:16:15;;;;;;;;;1.17;1.00;;;;;11.19;73.89;102929.34;2021622;28;2737772;-75
2024/02/04 03:17:28;;;;;;;;;4.00;2.17;;;;;11.17;73.99;102928.47;2029931;28;2733619;-75
2024/02/04 03:18:43;;;;;;;;;2.33;2.00;;;;;11.17;74.25;102932.00;2028814;28;2736760;-75
2024/02/04 03:19:57;;;;;;;;;1.00;1.00;;;;;11.17;74.08;102923.22;2020936;28;2738803;-76
2024/02/04 03:21:17;;;;;;;;;2.83;2.00;;;;;11.17;74.32;102923.22;2020639;28;2746133;-75
2024/02/04 03:22:30;;;;;;;;;1.00;1.00;;;;;11.16;74.38;102927.59;2021328;28;2733634;-75
2024/02/04 03:23:44;;;;;;;;;1.83;1.00;;;;;11.17;74.60;102928.47;2022087;28;2734652;-76
2024/02/04 03:24:57;;;;;;;;;1.33;1.00;;;;;11.17;74.67;102926.72;2029154;28;2735682;-76
2024/02/04 03:26:11;;;;;;;;;1.67;1.67;;;;;11.17;74.30;102929.34;2047129;28;2728402;-76
2024/02/04 03:27:21;;;;;;;;;4.00;2.67;;;;;11.16;74.41;102929.38;1996452;28;2750255;-76
2024/02/04 03:28:32;;;;;;;;;5.33;2.00;;;;;11.16;74.63;102927.59;2038053;27;2747148;-76
2024/02/04 03:29:44;;;;;;;;;1.00;1.00;;;;;11.16;74.62;102930.22;2052170;28;2732558;-75
2024/02/04 03:30:57;;;;;;;;;2.83;2.00;;;;;11.16;74.54;102930.22;2053071;27;2737196;-75
2024/02/04 03:32:11;;;;;;;;;2.83;1.67;;;;;11.16;74.44;102924.09;2051684;28;2731532;-76
2024/02/04 03:33:24;;;;;;;;;3.00;2.33;;;;;11.16;74.63;102927.59;2020624;28;2750257;-76
2024/02/04 03:34:37;;;;;;;;;2.83;2.00;;;;;11.15;74.82;102923.22;2027609;27;2747162;-75
2024/02/04 03:35:50;;;;;;;;;1.50;1.00;;;;;11.16;74.70;102930.22;2033567;27;2718581;-76
2024/02/04 03:37:01;;;;;;;;;2.00;2.00;;;;;11.15;74.67;102928.47;2001584;28;2752356;-75
2024/02/04 03:38:12;;;;;;;;;2.67;2.67;;;;;11.14;74.58;102927.59;2048017;27;2738288;-76
2024/02/04 03:39:26;;;;;;;;;3.00;3.00;;;;;11.14;74.56;102935.50;2052535;27;2742995;-75
2024/02/04 03:40:42;;;;;;;;;1.17;1.17;;;;;11.15;74.71;102931.13;2037255;27;2734678;-75
2024/02/04 03:41:55;;;;;;;;;3.17;3.17;;;;;11.14;74.56;102931.97;2030834;27;2739844;-76
2024/02/04 03:43:09;;;;;;;;;1.00;1.00;;;;;11.14;74.63;102934.59;2051927;27;2732580;-75
2024/02/04 03:44:22;;;;;;;;;2.17;2.17;;;;;11.12;74.44;102931.09;2028630;28;2734656;-75
2024/02/04 03:45:35;;;;;;;;;2.17;1.00;;;;;11.12;74.75;102936.38;2030447;27;2735742;-75
2024/02/04 03:46:50;;;;;;;;;1.17;1.17;;;;;11.10;74.86;102938.13;2035160;27;2732592;-76
2024/02/04 03:48:03;;;;;;;;;2.33;1.33;;;;;11.08;74.76;102934.63;2036479;27;2725273;-75
2024/02/04 03:49:17;;;;;;;;;1.67;1.17;;;;;11.07;74.75;102932.84;2038030;27;2731515;-75
2024/02/04 03:50:30;;;;;;;;;2.00;1.00;;;;;11.06;75.15;102931.13;2038469;27;2728411;-75
2024/02/04 03:51:44;;;;;;;;;1.17;1.00;;;;;11.03;74.99;102932.88;2036474;27;2738807;-75
2024/02/04 03:52:57;;;;;;;;;1.33;1.17;;;;;11.02;75.04;102936.38;2038002;27;2733965;-75
2024/02/04 03:54:10;;;;;;;;;0.67;0.67;;;;;11.03;74.78;102932.88;2058469;27;2730497;-76
2024/02/04 03:55:23;;;;;;;;;2.00;1.17;;;;;11.02;75.26;102931.09;2058092;27;2735693;-75
2024/02/04 03:56:36;;;;;;;;;1.17;1.17;;;;;11.02;75.10;102932.84;2060482;27;2729433;-75
2024/02/04 03:57:49;;;;;;;;;1.17;1.00;;;;;11.02;75.39;102930.22;2060695;27;2735698;-75
2024/02/04 03:59:03;;;;;;;;;1.17;1.17;;;;;11.03;75.45;102937.25;2036672;27;2731511;-75
2024/02/04 04:00:16;;;;;;;;;2.00;2.00;;;;;11.03;75.37;102930.25;2038241;27;2737781;-75
2024/02/04 04:01:29;;;;;;;;;1.67;1.67;;;;;11.05;75.43;102929.34;2037456;27;2734672;-75
2024/02/04 04:02:43;;;;;;;;;0.33;0.33;;;;;11.05;75.41;102927.59;2056544;27;2733595;-76
2024/02/04 04:03:56;;;;;;;;;1.83;1.83;;;;;11.06;75.46;102931.13;2036517;27;2729436;-76
2024/02/04 04:05:12;;;;;;;;;2.00;2.00;;;;;11.06;75.36;102932.00;2037493;27;2735702;-75
2024/02/04 04:06:25;;;;;;;;;3.00;1.33;;;;;11.07;75.65;102927.59;2034079;27;2735686;-75
2024/02/04 04:07:40;;;;;;;;;2.00;2.00;;;;;11.07;75.41;102932.84;2061359;27;2736158;-76
2024/02/04 04:08:53;;;;;;;;;1.33;1.33;;;;;11.08;75.38;102932.88;2037155;27;2734632;-75
2024/02/04 04:10:06;;;;;;;;;2.33;1.83;;;;;11.07;75.63;102938.13;2059751;27;2740918;-76
2024/02/04 04:11:20;;;;;;;;;1.67;1.67;;;;;11.08;75.89;102937.25;2037891;27;2723194;-76
2024/02/04 04:12:33;;;;;;;;;2.33;2.00;;;;;11.10;75.46;102940.75;2032109;27;2735690;-76
2024/02/04 04:13:46;;;;;;;;;3.00;1.50;;;;;11.09;75.46;102939.00;2031382;27;2735705;-75
2024/02/04 04:14:59;;;;;;;;;1.17;1.17;;;;;11.07;75.41;102939.00;2036597;27;2727364;-76
2024/02/04 04:16:12;;;;;;;;;1.00;1.00;;;;;11.07;75.37;102944.28;2030284;27;2737793;-76
2024/02/04 04:17:26;;;;;;;;;1.33;1.33;;;;;11.08;75.36;102950.41;2024219;28;2740347;-75
2024/02/04 04:18:39;;;;;;;;;1.00;1.00;;;;;11.08;75.30;102955.69;2026445;28;2728387;-75
2024/02/04 04:19:52;;;;;;;;;1.67;1.67;;;;;11.08;75.37;102950.41;2027735;28;2740929;-75
2024/02/04 04:21:05;;;;;;;;;1.00;1.00;;;;;11.08;75.30;102953.03;2035098;27;2734653;-76
2024/02/04 04:22:18;;;;;;;;;2.00;2.00;;;;;11.07;75.37;102952.16;2058805;27;2736704;-76
2024/02/04 04:23:31;;;;;;;;;2.50;1.17;;;;;11.06;75.24;102946.91;2032591;27;2737783;-76
2024/02/04 04:24:45;;;;;;;;;4.00;1.00;;;;;11.06;75.32;102946.91;2030822;27;2739849;-76
2024/02/04 04:25:58;;;;;;;;;2.17;1.67;;;;;11.07;75.46;102948.66;2028821;28;2736223;-75
2024/02/04 04:27:11;;;;;;;;;1.67;1.00;;;;;11.07;75.33;102943.38;2030442;27;2741944;-76
2024/02/04 04:28:24;;;;;;;;;3.67;1.67;;;;;11.07;75.38;102948.66;2028976;28;2739856;-75
2024/02/04 04:29:37;;;;;;;;;1.83;1.83;;;;;11.08;75.30;102939.88;2030307;27;2739897;-75
2024/02/04 04:30:50;;;;;;;;;1.83;1.17;;;;;11.08;75.49;102938.13;2038946;27;2731531;-75
2024/02/04 04:32:04;;;;;;;;;1.50;1.50;;;;;11.09;75.55;102947.78;2035494;27;2740910;-75
2024/02/04 04:33:18;;;;;;;;;2.83;1.17;;;;;11.07;75.57;102939.00;2030129;28;2729443;-75
2024/02/04 04:34:31;;;;;;;;;2.83;2.50;;;;;11.06;75.52;102936.38;2054077;28;2731032;-76
2024/02/04 04:35:44;;;;;;;;;2.00;2.00;;;;;11.07;75.42;102938.13;2028894;27;2739912;-76
2024/02/04 04:36:57;;;;;;;;;1.00;1.00;;;;;11.07;75.65;102930.22;2037203;27;2746091;-76
2024/02/04 04:38:10;;;;;;;;;3.67;1.83;;;;;11.07;75.80;102933.75;2039250;27;2734661;-76
2024/02/04 04:39:24;;;;;;;;;1.33;1.33;;;;;11.07;75.58;102928.47;2039093;27;2729455;-75
2024/02/04 04:40:37;;;;;;;;;1.33;1.33;;;;;11.08;75.77;102932.00;2037311;27;2730974;-75
2024/02/04 04:41:50;;;;;;;;;1.67;1.00;;;;;11.09;75.74;102931.09;2037023;27;2734094;-75
2024/02/04 04:43:03;;;;;;;;;1.00;0.00;;;;;11.08;75.83;102932.00;2037456;27;2733655;-76
2024/02/04 04:44:16;;;;;;;;;1.50;1.50;;;;;11.08;75.67;102929.34;2026875;28;2733591;-76
2024/02/04 04:45:30;;;;;;;;;3.00;2.00;;;;;11.08;75.79;102935.50;2027984;27;2737764;-76
2024/02/04 04:46:43;;;;;;;;;2.33;2.00;;;;;11.09;75.93;102939.00;2029953;27;2734724;-77
2024/02/04 04:47:56;;;;;;;;;2.00;2.00;;;;;11.09;75.70;102939.00;2037802;27;2746114;-76
2024/02/04 04:49:10;;;;;;;;;0.50;0.50;;;;;11.08;75.70;102937.25;2027004;27;2730958;-75
2024/02/04 04:50:23;;;;;;;;;2.00;1.33;;;;;11.09;75.99;102936.34;2015100;28;2737825;-75
2024/02/04 04:51:36;;;;;;;;;1.00;1.00;;;;;11.09;75.86;102936.34;2022120;28;2744011;-75
2024/02/04 04:52:49;;;;;;;;;1.83;1.83;;;;;11.08;75.89;102943.41;2023456;28;2730474;-76
2024/02/04 04:54:02;;;;;;;;;1.50;1.00;;;;;11.09;75.90;102936.34;2031146;27;2732588;-76
2024/02/04 04:55:16;;;;;;;;;2.00;1.67;;;;;11.11;75.79;102950.44;2028786;27;2738894;-76
2024/02/04 04:56:29;;;;;;;;;5.33;2.17;;;;;11.08;76.13;102946.03;2030314;27;2731519;-76
2024/02/04 04:57:42;;;;;;;;;2.00;1.33;;;;;11.09;75.98;102949.53;2030221;28;2737787;-75
2024/02/04 04:58:55;;;;;;;;;1.00;1.00;;;;;11.08;75.93;102951.31;2030814;28;2724224;-76
2024/02/04 05:00:09;;;;;;;;;1.17;1.17;;;;;11.10;75.94;102961.81;2030196;28;2729436;-75
2024/02/04 05:01:22;;;;;;;;;1.00;1.00;;;;;11.10;75.92;102961.81;2030634;28;2732587;-75
2024/02/04 05:02:36;;;;;;;;;2.17;2.17;;;;;11.09;75.98;102962.69;2029849;27;2739869;-76
2024/02/04 05:03:50;;;;;;;;;3.50;2.17;;;;;11.10;75.90;102961.81;2038952;27;2739852;-75
2024/02/04 05:05:03;;;;;;;;;1.00;1.00;;;;;11.10;75.79;102964.44;2038726;27;2726349;-76
2024/02/04 05:06:16;;;;;;;;;0.33;0.33;;;;;11.10;75.84;102954.81;2038087;27;2727356;-76
2024/02/04 05:07:29;;;;;;;;;1.33;1.00;;;;;11.10;76.05;102954.81;2028472;28;2735686;-75
2024/02/04 05:08:43;;;;;;;;;0.00;0.00;;;;;11.11;76.03;102945.16;2045999;28;2729487;-76
2024/02/04 05:09:56;;;;;;;;;1.67;1.00;;;;;11.11;76.03;102945.16;2030190;27;2733674;-76
2024/02/04 05:11:09;;;;;;;;;1.67;1.67;;;;;11.12;76.04;102944.25;2037318;27;2746129;-76
2024/02/04 05:12:23;;;;;;;;;1.33;1.33;;;;;11.11;75.86;102946.00;2038637;27;2737788;-75
2024/02/04 05:13:38;;;;;;;;;2.67;2.00;;;;;11.12;76.18;102952.16;2042709;27;2724247;-75
2024/02/04 05:14:52;;;;;;;;;2.67;1.00;;;;;11.11;76.18;102948.66;2030588;27;2737777;-75
2024/02/04 05:16:05;;;;;;;;;1.50;1.00;;;;;11.12;76.28;102946.91;2051274;28;2728791;-75
2024/02/04 05:17:18;;;;;;;;;1.83;1.83;;;;;11.12;76.10;102946.91;2031719;27;2729444;-76
2024/02/04 05:18:31;;;;;;;;;3.00;0.83;;;;;11.12;76.14;102949.53;2030108;27;2744029;-75
2024/02/04 05:19:44;;;;;;;;;1.00;1.00;;;;;11.12;75.93;102946.91;2020948;28;2733641;-76
2024/02/04 05:20:58;;;;;;;;;0.83;0.83;;;;;11.12;76.15;102946.91;2030341;27;2742962;-75
2024/02/04 05:22:11;;;;;;;;;1.00;1.00;;;;;11.12;75.96;102950.41;2035000;27;2733630;-75
2024/02/04 05:23:24;;;;;;;;;2.00;2.00;;;;;11.13;76.07;102949.56;2037839;27;2742408;-75
2024/02/04 05:24:37;;;;;;;;;1.00;1.00;;;;;11.10;76.07;102952.19;2037906;27;2739845;-75
2024/02/04 05:25:50;;;;;;;;;1.00;0.83;;;;;11.14;76.06;102955.66;2038248;27;2731538;-76
2024/02/04 05:27:04;;;;;;;;;1.33;1.33;;;;;11.14;76.08;102953.03;2037001;27;2743020;-76
2024/02/04 05:28:17;;;;;;;;;1.33;1.33;;;;;11.14;76.15;102959.19;2037157;27;2733606;-76
2024/02/04 05:29:31;;;;;;;;;0.33;0.33;;;;;11.14;76.09;102956.56;2037065;27;2731592;-76
2024/02/04 05:30:44;;;;;;;;;1.00;1.00;;;;;11.14;76.16;102955.66;2038462;27;2739844;-75
2024/02/04 05:31:58;;;;;;;;;1.00;1.00;;;;;11.15;76.08;102954.81;2036354;27;2733604;-76
2024/02/04 05:33:14;;;;;;;;;1.50;1.50;;;;;11.14;76.08;102953.91;2029924;27;2736736;-76
2024/02/04 05:34:30;;;;;;;;;0.50;0.50;;;;;11.16;76.28;102953.06;2037266;27;2724228;-75